Time,TemperatureF,DewpointF,PressureIn,WindDirection,WindDirectionDegrees,WindSpeedMPH,WindSpeedGustMPH,Humidity,HourlyPrecipIn,Conditions,Clouds,dailyrainin,SoftwareType,DateUTC
2013-04-10 00:00:00,42.1,42.1,19.99,NW,322,0.0,5.0,100,0.00,,---,0.00,VWS V13.00,2013-04-10 04:00:00,
2013-04-10 00:30:00,42.0,42.0,19.99,NW,322,3.0,4.0,100,0.00,,---,0.00,VWS V13.00,2013-04-10 04:30:00,
2013-04-10 01:00:00,41.1,41.1,20.00,NW,322,2.0,5.0,100,0.00,,---,0.00,VWS V13.00,2013-04-10 05:00:00,
2013-04-10 01:30:00,40.8,40.8,19.99,WNW,292,3.0,5.0,100,0.00,,---,0.00,VWS V13.00,2013-04-10 05:30:00,
2013-04-10 02:00:00,40.3,40.3,19.99,SW,235,0.0,6.0,100,0.00,,---,0.00,VWS V13.00,2013-04-10 06:00:00,
2013-04-10 02:30:00,39.6,39.6,19.99,North,0,0.0,4.0,100,0.00,,---,0.00,VWS V13.00,2013-04-10 06:30:00,
2013-04-10 03:00:00,40.0,40.0,19.99,North,0,0.0,3.0,100,0.00,,---,0.00,VWS V13.00,2013-04-10 07:00:00,
2013-04-10 03:30:00,40.4,40.4,20.00,North,0,0.0,2.0,100,0.00,,---,0.00,VWS V13.00,2013-04-10 07:30:00,
2013-04-10 04:00:00,40.2,40.2,19.99,North,0,0.0,0.0,100,0.00,,---,0.00,VWS V13.00,2013-04-10 08:00:00,
2013-04-10 05:30:00,40.3,40.3,19.99,NNW,331,3.0,5.0,100,0.00,,---,0.00,VWS V13.00,2013-04-10 09:30:00,
2013-04-10 06:00:00,40.3,40.3,19.99,NNW,331,0.0,4.0,100,0.00,,---,0.00,VWS V13.00,2013-04-10 10:00:00,
2013-04-10 06:30:00,40.0,40.0,19.99,NNW,331,0.0,4.0,100,0.00,,---,0.00,VWS V13.00,2013-04-10 10:30:00,
2013-04-10 07:00:00,40.8,40.8,19.99,NNW,331,3.0,4.0,100,0.00,,---,0.00,VWS V13.00,2013-04-10 11:00:00,
2013-04-10 07:30:00,41.1,41.1,19.99,NNW,332,1.0,6.0,100,0.00,,---,0.00,VWS V13.00,2013-04-10 11:30:00,
2013-04-10 08:00:00,41.7,41.7,19.99,NNW,332,1.0,3.0,100,0.00,,---,0.00,VWS V13.00,2013-04-10 12:00:00,
2013-04-10 08:30:00,42.1,42.1,19.99,NNW,332,2.0,4.0,100,0.00,,---,0.00,VWS V13.00,2013-04-10 12:30:00,
2013-04-10 09:00:00,43.1,43.1,19.99,WNW,298,2.0,5.0,100,0.00,,---,0.00,VWS V13.00,2013-04-10 13:00:00,
2013-04-10 09:30:00,43.8,43.8,20.00,WNW,299,0.0,4.0,100,0.00,,---,0.00,VWS V13.00,2013-04-10 13:30:00,
2013-04-10 10:00:00,43.7,43.7,20.00,WNW,298,2.0,5.0,100,0.00,,---,0.00,VWS V13.00,2013-04-10 14:00:00,
2013-04-10 10:30:00,45.3,45.3,19.99,WNW,300,3.0,5.0,100,0.00,,---,0.00,VWS V13.00,2013-04-10 14:30:00,
2013-04-10 11:00:00,45.9,45.9,19.99,NW,320,0.0,5.0,100,0.00,,---,0.00,VWS V13.00,2013-04-10 15:00:00,
2013-04-10 11:30:00,45.5,45.5,19.99,West,281,5.0,6.0,100,0.00,,---,0.00,VWS V13.00,2013-04-10 15:30:00,
2013-04-10 12:00:00,44.0,44.0,20.00,West,261,5.0,7.0,100,0.00,,---,0.00,VWS V13.00,2013-04-10 16:00:00,
2013-04-10 12:30:00,44.7,44.7,19.99,West,263,1.0,5.0,100,0.00,,---,0.00,VWS V13.00,2013-04-10 16:30:00,
2013-04-10 13:00:00,45.1,45.1,19.99,West,263,0.0,4.0,100,0.00,,---,0.00,VWS V13.00,2013-04-10 17:00:00,
2013-04-10 13:30:00,46.2,46.2,19.99,West,262,0.0,6.0,100,0.00,,---,0.00,VWS V13.00,2013-04-10 17:30:00,
2013-04-10 14:00:00,45.8,45.8,20.00,WNW,296,2.0,9.0,100,0.00,,---,0.00,VWS V13.00,2013-04-10 18:00:00,
2013-04-10 14:30:00,44.6,44.6,19.99,WNW,283,2.0,12.0,100,0.00,,---,0.00,VWS V13.00,2013-04-10 18:30:00,
2013-04-10 15:00:00,46.2,46.2,19.99,NW,323,2.0,6.0,100,0.00,,---,0.00,VWS V13.00,2013-04-10 19:00:00,
2013-04-10 15:30:00,46.5,46.5,19.99,West,277,3.0,8.0,100,0.00,,---,0.00,VWS V13.00,2013-04-10 19:30:00,
2013-04-10 16:00:00,47.0,47.0,19.99,West,277,4.0,8.0,100,0.00,,---,0.00,VWS V13.00,2013-04-10 20:00:00,
2013-04-10 16:30:00,48.1,48.1,20.00,NW,310,0.0,8.0,100,0.00,,---,0.00,VWS V13.00,2013-04-10 20:30:00,
2013-04-10 17:00:00,47.4,47.4,19.99,West,275,2.0,7.0,100,0.00,,---,0.00,VWS V13.00,2013-04-10 21:00:00,
2013-04-10 17:30:00,46.0,46.0,19.99,NNW,329,4.0,5.0,100,0.00,,---,0.00,VWS V13.00,2013-04-10 21:30:00,
2013-04-10 18:00:00,45.4,45.4,19.99,NNW,330,4.0,7.0,100,0.00,,---,0.00,VWS V13.00,2013-04-10 22:00:00,
2013-04-10 18:30:00,44.5,44.5,20.00,NNW,348,0.0,7.0,100,0.00,,---,0.00,VWS V13.00,2013-04-10 22:30:00,
2013-04-10 19:00:00,43.3,43.3,19.99,WNW,301,0.0,6.0,100,0.00,,---,0.00,VWS V13.00,2013-04-10 23:00:00,
2013-04-10 19:30:00,42.9,42.9,19.99,North,0,1.0,7.0,100,0.00,,---,0.00,VWS V13.00,2013-04-10 23:30:00,
2013-04-10 20:00:00,42.1,42.1,19.99,NNE,24,0.0,5.0,100,0.00,,---,0.00,VWS V13.00,2013-04-11 00:00:00,
2013-04-10 20:30:00,42.0,42.0,19.99,NNE,22,0.0,4.0,100,0.00,,---,0.00,VWS V13.00,2013-04-11 00:30:00,
2013-04-10 21:00:00,41.3,41.3,19.99,NNE,21,2.0,5.0,100,0.00,,---,0.00,VWS V13.00,2013-04-11 01:00:00,
2013-04-10 21:30:00,40.4,40.4,20.00,North,3,3.0,9.0,100,0.00,,---,0.00,VWS V13.00,2013-04-11 01:30:00,
2013-04-10 22:00:00,39.9,39.9,19.99,North,0,0.0,8.0,100,0.00,,---,0.00,VWS V13.00,2013-04-11 02:00:00,
2013-04-10 22:30:00,39.4,39.4,19.99,NNE,19,3.0,7.0,100,0.00,,---,0.00,VWS V13.00,2013-04-11 02:30:00,
2013-04-10 23:00:00,39.2,39.2,20.00,North,7,0.0,5.0,100,0.00,,---,0.00,VWS V13.00,2013-04-11 03:00:00,
2013-04-10 23:30:00,39.0,39.0,19.99,North,7,0.0,3.0,100,0.00,,---,0.00,VWS V13.00,2013-04-11 03:30:00,